Terminal Aerodrome Forecast
Issued by NWS Billings, MT

Home | Current Version | Previous Version | Text Only | Print | Product List | Glossary On
Versions: 1 2 3 4 5 6 7 8 9 10 11 12 13 14 15 16 17 18 19 20 21 22 23 24 25 26
000
FTUS45 KBYZ 100531
TAFSHR
TAF
KSHR 100531Z 1006/1106 VRB05KT 6SM -SN BR SCT025 OVC040
     FM100700 VRB05KT P6SM VCSH SCT030 BKN050 OVC100
     FM101500 30005KT P6SM BKN070 BKN120=

USA.gov is the U.S. government's official web portal to all federal, state and local government web resources and services.